Time;durP1;ratioP1;P1;durP2;ratioP2;P2;SDS_P1;SDS_P2;PMS_P1;PMS_P2;Temp;Humidity;BMP_temperature;BMP_pressure;BME280_temperature;BME280_humidity;BME280_pressure;Samples;Min_cycle;Max_cycle;Signal;HPM_P1;HPM_P2
2022/11/22 00:00:24;;;;;;;32.43;13.63;;;;;;;-3.47;100.00;99678.56;5070796;28;20127;-79
2022/11/22 00:02:51;;;;;;;31.43;14.67;;;;;;;-3.46;100.00;99672.56;5030848;28;20475;-79
2022/11/22 00:05:18;;;;;;;30.53;14.63;;;;;;;-3.37;100.00;99676.16;5040135;28;20048;-79
2022/11/22 00:07:44;;;;;;;32.50;13.63;;;;;;;-3.55;100.00;99679.25;5047974;28;20040;-80
2022/11/22 00:10:12;;;;;;;26.20;13.20;;;;;;;-3.47;100.00;99681.16;5067532;28;20062;-78
2022/11/22 00:12:42;;;;;;;27.23;13.20;;;;;;;-3.52;100.00;99675.03;5041039;28;20123;-78
2022/11/22 00:15:10;;;;;;;24.97;14.23;;;;;;;-3.53;100.00;99681.03;5056014;28;20435;-78
2022/11/22 00:17:37;;;;;;;25.47;13.23;;;;;;;-3.50;100.00;99663.03;5055493;28;20044;-79
2022/11/22 00:20:06;;;;;;;23.60;12.50;;;;;;;-3.61;100.00;99648.16;5039793;28;20044;-79
2022/11/22 00:22:33;;;;;;;31.10;12.80;;;;;;;-3.54;100.00;99650.00;5047654;28;20412;-80
2022/11/22 00:25:07;;;;;;;22.33;11.73;;;;;;;-3.65;100.00;99639.47;5044330;28;20048;-79
2022/11/22 00:27:34;;;;;;;24.97;12.10;;;;;;;-3.65;100.00;99636.03;5022337;28;20048;-79
2022/11/22 00:30:00;;;;;;;25.67;12.03;;;;;;;-3.71;100.00;99624.72;5036243;28;20047;-79
2022/11/22 00:32:27;;;;;;;26.73;13.30;;;;;;;-3.57;100.00;99629.31;5059014;28;20024;-79
2022/11/22 00:34:54;;;;;;;26.90;13.40;;;;;;;-3.70;100.00;99625.59;5041306;28;20413;-79
2022/11/22 00:37:20;;;;;;;24.30;12.40;;;;;;;-3.58;100.00;99625.00;5038495;28;20040;-79
2022/11/22 00:39:47;;;;;;;22.90;11.50;;;;;;;-3.67;100.00;99623.09;5072033;28;20471;-80
2022/11/22 00:42:13;;;;;;;23.27;12.47;;;;;;;-3.51;100.00;99609.66;5055386;28;20044;-80
2022/11/22 00:44:40;;;;;;;20.13;11.07;;;;;;;-3.51;100.00;99611.34;5093153;22;20043;-85
2022/11/22 00:47:07;;;;;;;19.13;10.73;;;;;;;-3.58;100.00;99622.41;5073695;27;20043;-83
2022/11/22 00:49:33;;;;;;;23.97;12.07;;;;;;;-3.55;100.00;99609.53;5077163;27;20039;-83
2022/11/22 00:52:00;;;;;;;23.60;12.27;;;;;;;-3.63;100.00;99613.69;5091907;27;20092;-84
2022/11/22 00:54:27;;;;;;;23.90;11.67;;;;;;;-3.60;100.00;99600.88;5077856;27;20039;-83
2022/11/22 00:56:54;;;;;;;25.17;12.47;;;;;;;-3.61;100.00;99607.75;5083915;27;20035;-84
2022/11/22 00:59:20;;;;;;;23.90;12.10;;;;;;;-3.52;100.00;99605.31;5076506;27;20151;-83
2022/11/22 01:01:47;;;;;;;20.70;12.47;;;;;;;-3.62;100.00;99598.22;5076482;27;20031;-83
2022/11/22 01:04:14;;;;;;;27.57;12.57;;;;;;;-3.46;100.00;99602.84;5095374;27;20437;-85
2022/11/22 01:06:40;;;;;;;28.33;13.00;;;;;;;-3.43;100.00;99592.59;5093509;27;20051;-84
2022/11/22 01:09:07;;;;;;;24.60;12.83;;;;;;;-3.44;100.00;99596.00;5093926;27;20043;-82
2022/11/22 01:11:33;;;;;;;26.30;12.83;;;;;;;-3.37;100.00;99603.84;5077478;27;20074;-83
2022/11/22 01:14:00;;;;;;;24.20;12.40;;;;;;;-3.36;100.00;99591.00;5077233;27;20092;-86
2022/11/22 01:16:27;;;;;;;27.10;12.07;;;;;;;-3.34;100.00;99581.56;5076165;27;20449;-86
2022/11/22 01:18:54;;;;;;;26.57;12.23;;;;;;;-3.25;100.00;99588.59;5096098;27;21783;-85
2022/11/22 01:21:20;;;;;;;24.13;11.47;;;;;;;-3.22;100.00;99593.81;5079847;27;20445;-86
2022/11/22 01:23:47;;;;;;;29.03;12.43;;;;;;;-3.17;100.00;99593.06;5093779;28;20040;-86
2022/11/22 01:26:14;;;;;;;23.17;12.00;;;;;;;-3.20;100.00;99598.13;5096492;27;20039;-85
2022/11/22 01:28:40;;;;;;;24.60;12.63;;;;;;;-3.11;100.00;99592.28;5099287;27;20039;-85
2022/11/22 01:31:08;;;;;;;24.63;13.63;;;;;;;-3.12;100.00;99593.09;5098312;27;20071;-85
2022/11/22 01:33:34;;;;;;;23.53;11.43;;;;;;;-3.02;100.00;99605.38;5099395;27;20039;-83
2022/11/22 01:36:01;;;;;;;26.80;11.93;;;;;;;-2.96;100.00;99592.53;5105686;27;20039;-86
2022/11/22 01:38:28;;;;;;;29.37;11.90;;;;;;;-3.03;100.00;99598.44;5112342;27;20092;-83
2022/11/22 01:40:54;;;;;;;24.13;11.83;;;;;;;-2.96;100.00;99595.09;5084962;27;20457;-84
2022/11/22 01:43:23;;;;;;;21.17;11.40;;;;;;;-2.97;100.00;99585.63;5097817;27;20039;-86
2022/11/22 01:45:55;;;;;;;21.87;11.63;;;;;;;-2.91;100.00;99588.31;5091713;27;20035;-83
2022/11/22 01:48:37;;;;;;;23.87;11.63;;;;;;;-2.81;100.00;99578.13;5112735;27;20038;-85
2022/11/22 01:51:24;;;;;;;21.57;10.50;;;;;;;-2.81;100.00;99591.91;5126302;27;20461;-85
2022/11/22 01:53:51;;;;;;;23.83;11.10;;;;;;;-2.83;100.00;99591.03;5093078;27;20050;-85
2022/11/22 01:56:19;;;;;;;21.40;10.33;;;;;;;-2.83;100.00;99591.03;5098937;27;20078;-86
2022/11/22 01:58:49;;;;;;;21.77;12.10;;;;;;;-2.78;100.00;99599.69;5115393;27;20042;-84
2022/11/22 02:01:15;;;;;;;25.97;11.70;;;;;;;-2.72;100.00;99593.78;5098419;27;20049;-85
2022/11/22 02:03:45;;;;;;;20.03;10.27;;;;;;;-2.87;100.00;99584.91;5098869;27;20047;-86
2022/11/22 02:06:12;;;;;;;28.30;11.93;;;;;;;-2.72;100.00;99588.59;5081515;27;20454;-85
2022/11/22 02:08:46;;;;;;;25.73;12.30;;;;;;;-2.74;100.00;99592.88;5082737;27;20115;-84
2022/11/22 02:11:12;;;;;;;26.23;11.80;;;;;;;-2.75;100.00;99591.16;5081969;27;20055;-86
2022/11/22 02:13:41;;;;;;;24.13;12.33;;;;;;;-2.75;100.00;99591.16;5081211;27;20112;-84
2022/11/22 02:16:09;;;;;;;24.20;11.60;;;;;;;-2.73;100.00;99590.31;5080899;27;20545;-84
2022/11/22 02:18:36;;;;;;;26.50;11.43;;;;;;;-2.66;100.00;99586.13;5081488;27;20480;-85
2022/11/22 02:21:03;;;;;;;23.37;11.70;;;;;;;-2.69;100.00;99583.47;5081671;27;20095;-85
2022/11/22 02:23:35;;;;;;;23.97;10.93;;;;;;;-2.67;100.00;99576.63;5081414;27;20441;-85
2022/11/22 02:26:02;;;;;;;21.10;10.97;;;;;;;-2.77;100.00;99578.22;5094713;27;20050;-84
2022/11/22 02:28:32;;;;;;;19.90;10.07;;;;;;;-2.64;100.00;99581.84;5100020;27;20060;-86
2022/11/22 02:30:59;;;;;;;22.97;11.50;;;;;;;-2.65;100.00;99580.09;5076689;28;20114;-85
2022/11/22 02:33:25;;;;;;;22.40;11.33;;;;;;;-2.81;100.00;99588.47;5096064;27;20042;-84
2022/11/22 02:35:52;;;;;;;19.30;11.37;;;;;;;-2.76;100.00;99589.41;5087570;27;20039;-84
2022/11/22 02:38:25;;;;;;;20.23;11.47;;;;;;;-2.77;100.00;99580.78;5101256;27;20039;-85
2022/11/22 02:40:54;;;;;;;24.17;11.17;;;;;;;-2.76;100.00;99582.53;5097638;27;20050;-85
2022/11/22 02:43:37;;;;;;;21.67;11.10;;;;;;;-2.72;100.00;99571.38;5098585;27;20046;-85
2022/11/22 02:46:11;;;;;;;28.73;11.53;;;;;;;-2.70;100.00;99572.25;5088263;27;20039;-84
2022/11/22 02:48:42;;;;;;;23.60;12.17;;;;;;;-2.71;100.00;99569.66;5106649;27;20039;-83
2022/11/22 02:51:09;;;;;;;25.17;12.43;;;;;;;-2.69;100.00;99567.94;5098333;27;20100;-84
2022/11/22 02:53:36;;;;;;;27.20;14.77;;;;;;;-2.68;100.00;99549.91;5081954;27;20047;-85
2022/11/22 02:56:02;;;;;;;21.83;10.60;;;;;;;-2.74;100.00;99549.81;5102694;27;20060;-85
2022/11/22 02:58:29;;;;;;;26.63;11.63;;;;;;;-2.69;100.00;99542.09;5103669;27;20072;-83
2022/11/22 03:00:56;;;;;;;21.27;12.47;;;;;;;-2.68;100.00;99546.47;5080708;28;20088;-84
2022/11/22 03:03:23;;;;;;;25.13;13.33;;;;;;;-2.63;100.00;99534.44;5084190;27;20084;-85
2022/11/22 03:05:49;;;;;;;22.80;12.70;;;;;;;-2.67;100.00;99525.78;5091236;28;20044;-84
2022/11/22 03:08:16;;;;;;;25.57;12.87;;;;;;;-2.66;100.00;99540.44;5096293;27;20076;-84
2022/11/22 03:10:43;;;;;;;21.50;11.30;;;;;;;-2.59;100.00;99531.94;5113955;27;20031;-84
2022/11/22 03:13:09;;;;;;;27.00;13.40;;;;;;;-2.62;100.00;99531.88;5113866;27;20044;-84
2022/11/22 03:15:36;;;;;;;24.07;12.40;;;;;;;-2.71;100.00;99536.91;5091332;27;20033;-85
2022/11/22 03:18:03;;;;;;;24.80;12.60;;;;;;;-2.65;100.00;99536.16;5096373;27;20130;-84
2022/11/22 03:20:31;;;;;;;29.10;13.73;;;;;;;-2.59;100.00;99546.59;5096714;27;20043;-85
2022/11/22 03:23:01;;;;;;;25.27;13.20;;;;;;;-2.58;100.00;99548.31;5115771;27;20027;-86
2022/11/22 03:25:28;;;;;;;26.70;12.97;;;;;;;-2.55;100.00;99556.09;5108225;27;20035;-86
2022/11/22 03:27:54;;;;;;;27.50;13.43;;;;;;;-2.64;100.00;99550.81;5076827;28;20039;-84
2022/11/22 03:30:21;;;;;;;29.77;14.50;;;;;;;-2.65;100.00;99552.53;5092672;27;20050;-85
2022/11/22 03:32:48;;;;;;;27.93;12.90;;;;;;;-2.60;100.00;99537.97;5091052;27;20031;-84
2022/11/22 03:35:14;;;;;;;24.03;13.17;;;;;;;-2.55;100.00;99538.00;5078568;27;20039;-85
2022/11/22 03:37:41;;;;;;;28.00;13.80;;;;;;;-2.55;100.00;99538.88;5073517;28;20458;-84
2022/11/22 03:40:08;;;;;;;26.83;14.10;;;;;;;-2.58;100.00;99544.03;5068096;28;20089;-84
2022/11/22 03:42:34;;;;;;;25.33;11.77;;;;;;;-2.44;100.00;99558.84;5112593;28;20042;-85
2022/11/22 03:45:01;;;;;;;28.00;14.73;;;;;;;-2.56;100.00;99554.38;5079758;28;20586;-85
2022/11/22 03:47:28;;;;;;;25.93;12.67;;;;;;;-2.52;100.00;99563.94;5085221;27;20045;-84
2022/11/22 03:49:55;;;;;;;28.13;14.43;;;;;;;-2.52;100.00;99551.00;5114943;28;20032;-85
2022/11/22 03:52:21;;;;;;;29.70;14.47;;;;;;;-2.57;100.00;99537.13;5088923;27;20168;-84
2022/11/22 03:54:49;;;;;;;27.00;12.80;;;;;;;-2.51;100.00;99528.59;5083906;27;20035;-85
2022/11/22 03:57:16;;;;;;;30.37;13.80;;;;;;;-2.49;100.00;99538.09;5096242;27;20099;-84
2022/11/22 03:59:43;;;;;;;28.57;14.50;;;;;;;-2.50;100.00;99545.84;5083336;27;20047;-85
2022/11/22 04:02:09;;;;;;;28.80;13.57;;;;;;;-2.53;100.00;99533.72;5110874;27;20111;-85
2022/11/22 04:04:36;;;;;;;28.73;14.47;;;;;;;-2.70;100.00;99537.78;5107295;27;20039;-84
2022/11/22 04:07:02;;;;;;;28.00;13.57;;;;;;;-2.60;100.00;99526.75;5094488;27;20031;-85
2022/11/22 04:09:29;;;;;;;31.87;15.00;;;;;;;-2.49;100.00;99542.41;5080637;27;20135;-85
2022/11/22 04:11:56;;;;;;;31.37;15.03;;;;;;;-2.48;100.00;99536.38;5122548;27;20121;-83
2022/11/22 04:17:12;;;;;;;26.63;13.63;;;;;;;-2.43;100.00;99520.09;5102375;27;20103;-83
2022/11/22 04:21:32;;;;;;;32.03;14.53;;;;;;;-2.50;100.00;99518.28;5076139;27;20103;-84
2022/11/22 04:22:25;;;;;;;34.23;16.47;;;;;;;-2.48;100.00;99508.81;5105159;27;20095;-83
2022/11/22 04:27:37;;;;;;;32.70;14.87;;;;;;;-2.39;100.00;99496.00;5096056;27;20483;-85
2022/11/22 04:30:04;;;;;;;27.87;13.33;;;;;;;-2.36;100.00;99477.91;5100856;27;20039;-83
2022/11/22 04:32:46;;;;;;;29.83;13.93;;;;;;;-2.31;100.00;99480.56;5096616;28;20505;-83
2022/11/22 04:35:17;;;;;;;30.03;15.60;;;;;;;-2.44;100.00;99484.72;5105261;27;20053;-84
2022/11/22 04:37:50;;;;;;;34.30;15.70;;;;;;;-2.38;100.00;99482.22;5083777;27;20091;-83
2022/11/22 04:40:16;;;;;;;29.93;14.30;;;;;;;-2.36;100.00;99471.88;5077825;27;20046;-83
2022/11/22 04:45:29;;;;;;;34.40;15.97;;;;;;;-2.44;100.00;99471.78;5101212;27;20039;-83
2022/11/22 04:47:58;;;;;;;30.00;14.47;;;;;;;-2.45;100.00;99464.88;5073752;28;20098;-84
2022/11/22 04:53:23;;;;;;;27.83;14.20;;;;;;;-2.48;100.00;99485.53;5050548;27;20045;-84
2022/11/22 04:55:51;;;;;;;31.87;14.57;;;;;;;-2.39;100.00;99497.72;5083293;27;20051;-84
2022/11/22 04:58:19;;;;;;;32.77;14.33;;;;;;;-2.37;100.00;99498.59;5089259;28;20040;-84
2022/11/22 05:00:46;;;;;;;28.47;15.23;;;;;;;-2.37;100.00;99486.53;5095331;27;20050;-84
2022/11/22 05:03:13;;;;;;;31.87;14.73;;;;;;;-2.27;100.00;99485.81;5081375;27;20449;-86
2022/11/22 05:05:41;;;;;;;31.10;13.97;;;;;;;-2.38;100.00;99487.38;5084022;27;20070;-84
2022/11/22 05:08:08;;;;;;;31.70;14.17;;;;;;;-2.28;100.00;99493.53;5094677;27;20035;-84
2022/11/22 05:13:36;;;;;;;30.97;13.97;;;;;;;-2.30;100.00;99483.16;5114371;27;20667;-85
2022/11/22 05:16:04;;;;;;;27.87;13.47;;;;;;;-2.20;100.00;99485.88;5078750;28;20492;-84
2022/11/22 05:18:31;;;;;;;33.63;15.13;;;;;;;-2.19;100.00;99479.84;5100799;27;20419;-86
2022/11/22 05:20:59;;;;;;;33.27;15.57;;;;;;;-2.28;100.00;99476.28;5081926;27;20035;-84
2022/11/22 05:26:11;;;;;;;34.07;15.30;;;;;;;-2.28;100.00;99483.19;5104918;27;20067;-85
2022/11/22 05:28:38;;;;;;;33.13;15.03;;;;;;;-2.35;100.00;99478.81;5082398;27;20092;-83
2022/11/22 05:31:11;;;;;;;36.37;16.17;;;;;;;-2.36;100.00;99479.63;5080160;27;20043;-83
2022/11/22 05:33:39;;;;;;;34.17;16.13;;;;;;;-2.36;100.00;99470.16;5097635;27;20044;-84
2022/11/22 05:36:06;;;;;;;33.13;15.17;;;;;;;-2.37;100.00;99486.53;5083703;27;20077;-85
2022/11/22 05:38:34;;;;;;;34.30;16.07;;;;;;;-2.21;100.00;99489.31;5081040;27;20044;-84
2022/11/22 05:41:04;;;;;;;33.53;15.07;;;;;;;-2.31;100.00;99490.91;5081161;27;20088;-82
2022/11/22 05:43:32;;;;;;;39.27;16.10;;;;;;;-2.20;100.00;99486.72;5082900;27;20035;-83
2022/11/22 05:46:07;;;;;;;35.23;16.33;;;;;;;-2.19;100.00;99488.47;5109616;27;20035;-84
2022/11/22 05:48:35;;;;;;;29.97;15.30;;;;;;;-2.24;100.00;99477.22;5111729;27;20089;-83
2022/11/22 05:51:06;;;;;;;31.43;15.33;;;;;;;-2.20;100.00;99486.72;5114983;27;20046;-85
2022/11/22 05:53:34;;;;;;;38.90;16.03;;;;;;;-2.23;100.00;99489.28;5078690;28;20051;-84
2022/11/22 05:56:08;;;;;;;37.40;17.50;;;;;;;-2.16;100.00;99493.69;5073614;28;20043;-83
2022/11/22 05:58:35;;;;;;;;;;;;;;;-2.23;100.00;99486.72;5098987;27;20445;-85
2022/11/22 06:01:06;;;;;;;31.10;14.67;;;;;;;-2.18;100.00;99494.53;5097550;27;19919;-83
2022/11/22 06:03:34;;;;;;;36.00;16.57;;;;;;;-2.14;100.00;99502.34;5082057;27;20038;-84
2022/11/22 06:06:02;;;;;;;37.73;17.07;;;;;;;-2.08;100.00;99507.59;5081640;27;20051;-84
2022/11/22 06:08:29;;;;;;;38.73;15.70;;;;;;;-2.13;100.00;99503.19;5066941;28;20036;-84
2022/11/22 06:11:03;;;;;;;40.63;18.17;;;;;;;-2.08;100.00;99501.56;5084797;27;20035;-84
2022/11/22 06:13:38;;;;;;;36.00;16.00;;;;;;;-2.08;100.00;99504.13;5080150;27;20064;-83
2022/11/22 06:16:05;;;;;;;40.00;16.67;;;;;;;-2.10;100.00;99498.06;5095000;27;20480;-84
2022/11/22 06:18:32;;;;;;;40.00;18.53;;;;;;;-2.18;100.00;99516.09;5097051;27;20047;-86
2022/11/22 06:21:01;;;;;;;33.40;16.23;;;;;;;-2.20;100.00;99527.25;5091878;27;20450;-85
2022/11/22 06:23:28;;;;;;;40.80;16.80;;;;;;;-2.27;100.00;99516.84;5081742;27;20031;-84
2022/11/22 06:26:03;;;;;;;40.77;16.27;;;;;;;-2.33;100.00;99521.94;5078968;28;20036;-84
2022/11/22 06:28:31;;;;;;;38.90;17.53;;;;;;;-2.19;100.00;99519.50;5084687;27;20050;-84
2022/11/22 06:31:13;;;;;;;40.97;17.80;;;;;;;-2.21;100.00;99523.81;5102148;27;20031;-84
2022/11/22 06:33:41;;;;;;;38.80;18.77;;;;;;;-2.09;100.00;99516.22;5098571;27;20042;-84
2022/11/22 06:36:11;;;;;;;46.27;19.67;;;;;;;-2.22;100.00;99513.44;5077520;28;20050;-84
2022/11/22 06:38:39;;;;;;;46.07;21.20;;;;;;;-2.19;100.00;99511.75;5095773;27;20527;-84
2022/11/22 06:41:17;;;;;;;40.17;17.67;;;;;;;-2.19;100.00;99513.47;5084921;27;20047;-84
2022/11/22 06:43:45;;;;;;;46.10;20.97;;;;;;;-2.07;100.00;99501.56;5103985;28;20043;-84
2022/11/22 06:46:18;;;;;;;42.10;19.43;;;;;;;-2.13;100.00;99508.38;5089936;27;20039;-83
2022/11/22 06:48:45;;;;;;;47.37;18.20;;;;;;;-2.10;100.00;99498.94;5083476;27;20067;-84
2022/11/22 06:51:18;;;;;;;43.33;19.23;;;;;;;-2.07;100.00;99498.09;5081211;27;20492;-84
2022/11/22 06:53:46;;;;;;;40.80;16.50;;;;;;;-2.03;100.00;99497.28;5109998;28;20047;-85
2022/11/22 06:56:25;;;;;;;44.77;19.10;;;;;;;-2.10;100.00;99508.41;5080292;27;20048;-83
2022/11/22 06:58:52;;;;;;;47.83;19.60;;;;;;;-1.98;100.00;99508.56;5174362;22;20403;-80
2022/11/22 07:01:27;;;;;;;48.53;21.13;;;;;;;-1.94;100.00;99512.03;5066911;28;20463;-81
2022/11/22 07:03:56;;;;;;;47.17;21.77;;;;;;;-2.00;100.00;99511.13;5058045;28;20039;-81
2022/11/22 07:06:25;;;;;;;44.50;19.63;;;;;;;-1.94;100.00;99505.13;5074437;28;20070;-81
2022/11/22 07:08:53;;;;;;;43.47;17.30;;;;;;;-1.96;100.00;99512.03;5037830;28;20052;-79
2022/11/22 07:11:25;;;;;;;48.40;21.00;;;;;;;-1.92;100.00;99508.63;5057533;28;20128;-81
2022/11/22 07:13:52;;;;;;;52.97;20.77;;;;;;;-1.89;100.00;99520.72;5069552;28;20051;-83
2022/11/22 07:16:19;;;;;;;53.77;20.77;;;;;;;-1.86;100.00;99519.03;5055116;28;20044;-79
2022/11/22 07:18:47;;;;;;;45.77;21.00;;;;;;;-1.76;100.00;99532.97;5072818;28;20040;-80
2022/11/22 07:21:18;;;;;;;45.53;20.43;;;;;;;-1.73;100.00;99523.50;5056361;28;20040;-81
2022/11/22 07:23:47;;;;;;;46.67;21.47;;;;;;;-1.67;100.00;99527.03;5072625;28;20036;-80
2022/11/22 07:26:15;;;;;;;46.03;19.60;;;;;;;-1.66;100.00;99534.81;5071852;28;20473;-82
2022/11/22 07:28:41;;;;;;;42.23;19.27;;;;;;;-1.73;100.00;99533.88;5056428;28;20070;-80
2022/11/22 07:31:10;;;;;;;43.93;19.50;;;;;;;-1.84;100.00;99538.06;5055978;28;20093;-83
2022/11/22 07:33:37;;;;;;;46.03;19.33;;;;;;;-1.71;100.00;99547.69;5053578;28;20036;-81
2022/11/22 07:36:05;;;;;;;45.67;20.47;;;;;;;-1.68;100.00;99551.16;5071627;28;20068;-80
2022/11/22 07:38:32;;;;;;;46.50;19.50;;;;;;;-1.65;100.00;99549.47;5065512;28;20075;-81
2022/11/22 07:40:59;;;;;;;41.30;16.97;;;;;;;-1.61;100.00;99556.41;5052403;28;20041;-79
2022/11/22 07:43:27;;;;;;;47.83;20.97;;;;;;;-1.62;100.00;99546.06;5063097;28;20068;-81
2022/11/22 07:46:00;;;;;;;48.20;22.63;;;;;;;-1.64;100.00;99551.22;5054245;28;20085;-80
2022/11/22 07:48:26;;;;;;;44.17;19.63;;;;;;;-1.71;100.00;99546.81;5089258;28;20386;-82
2022/11/22 07:50:53;;;;;;;44.60;19.47;;;;;;;-1.59;100.00;99551.28;5071935;28;20135;-79
2022/11/22 07:53:19;;;;;;;42.63;18.20;;;;;;;-1.67;100.00;99558.09;5039282;28;20045;-79
2022/11/22 07:55:46;;;;;;;43.37;18.47;;;;;;;-1.63;100.00;99552.94;5038979;28;20528;-81
2022/11/22 07:58:13;;;;;;;41.93;17.90;;;;;;;-1.58;100.00;99547.84;5039177;28;20048;-80
2022/11/22 08:00:40;;;;;;;44.53;19.40;;;;;;;-1.60;100.00;99546.94;5072946;28;20044;-79
2022/11/22 08:03:07;;;;;;;41.07;17.43;;;;;;;-1.62;100.00;99533.09;5073560;28;20658;-80
2022/11/22 08:05:34;;;;;;;47.07;19.20;;;;;;;-1.61;100.00;99540.88;5039745;28;20090;-80
2022/11/22 08:08:00;;;;;;;47.60;18.67;;;;;;;-1.51;100.00;99536.69;5088906;28;20055;-80
2022/11/22 08:10:27;;;;;;;51.90;19.50;;;;;;;-1.53;100.00;99540.97;5069131;28;20036;-81
2022/11/22 08:12:57;;;;;;;47.53;21.43;;;;;;;-1.61;100.00;99540.00;5052306;28;20040;-80
2022/11/22 08:15:25;;;;;;;48.07;19.80;;;;;;;-1.43;100.00;99522.06;5061502;28;20098;-80
2022/11/22 08:17:52;;;;;;;43.63;18.50;;;;;;;-1.42;100.00;99527.28;5044844;28;20066;-79
2022/11/22 08:20:19;;;;;;;45.30;18.53;;;;;;;-1.41;100.00;99520.38;5066851;28;20042;-80
2022/11/22 08:22:46;;;;;;;42.60;19.03;;;;;;;-1.46;100.00;99517.72;5064108;28;20499;-80
2022/11/22 08:25:13;;;;;;;40.73;18.53;;;;;;;-1.43;100.00;99514.28;5056141;28;20056;-80
2022/11/22 08:27:40;;;;;;;44.70;19.03;;;;;;;-1.51;100.00;99509.06;5072153;28;20066;-82
2022/11/22 08:30:09;;;;;;;46.03;19.87;;;;;;;-1.42;100.00;99508.28;5069031;28;20051;-79
2022/11/22 08:32:35;;;;;;;46.43;19.63;;;;;;;-1.44;100.00;99509.97;5069788;28;20106;-80
2022/11/22 08:35:02;;;;;;;47.50;19.63;;;;;;;-1.49;100.00;99509.06;5073168;28;20032;-80
2022/11/22 08:37:29;;;;;;;45.73;18.80;;;;;;;-1.40;100.00;99509.16;5072816;28;20041;-79
2022/11/22 08:39:56;;;;;;;48.03;19.30;;;;;;;-1.26;100.00;99504.97;5073084;28;20043;-81
2022/11/22 08:42:22;;;;;;;46.67;21.33;;;;;;;-1.32;100.00;99506.63;5059927;28;20055;-80
2022/11/22 08:44:50;;;;;;;55.87;20.07;;;;;;;-1.43;100.00;99491.88;5077493;28;20638;-79
2022/11/22 08:47:16;;;;;;;48.07;18.30;;;;;;;-1.34;100.00;99503.19;5056674;28;20041;-80
2022/11/22 08:49:43;;;;;;;45.53;17.33;;;;;;;-1.32;100.00;99499.72;5067821;28;20049;-79
2022/11/22 08:52:10;;;;;;;49.33;19.87;;;;;;;-1.48;100.00;99498.72;5076425;28;20111;-79
2022/11/22 08:54:36;;;;;;;45.00;19.07;;;;;;;-1.31;100.00;99498.88;5060144;28;20405;-80
2022/11/22 08:57:04;;;;;;;49.27;20.97;;;;;;;-1.45;100.00;99495.28;5059960;28;20069;-79
2022/11/22 08:59:30;;;;;;;51.83;20.67;;;;;;;-1.49;100.00;99502.16;5072664;28;20040;-80
2022/11/22 09:01:58;;;;;;;49.00;21.23;;;;;;;-1.34;100.00;99498.84;5076382;28;20415;-80
2022/11/22 09:04:25;;;;;;;49.20;20.57;;;;;;;-1.27;100.00;99498.03;5045094;28;20043;-81
2022/11/22 09:06:52;;;;;;;50.30;21.40;;;;;;;-1.28;100.00;99492.84;5055865;28;20101;-80
2022/11/22 09:09:39;;;;;;;47.00;19.50;;;;;;;-1.30;100.00;99505.78;5057723;28;20048;-83
2022/11/22 09:12:06;;;;;;;50.87;20.57;;;;;;;-1.18;100.00;99508.50;5063523;28;20052;-81
2022/11/22 09:14:32;;;;;;;52.47;20.40;;;;;;;-1.10;100.00;99515.44;5043000;28;20416;-80
2022/11/22 09:16:59;;;;;;;50.33;20.07;;;;;;;-1.09;100.00;99506.81;5091669;28;20040;-79
2022/11/22 09:19:26;;;;;;;47.87;20.63;;;;;;;-1.15;100.00;99511.09;5058986;28;20043;-79
2022/11/22 09:21:52;;;;;;;50.57;20.50;;;;;;;-1.06;100.00;99514.63;5068772;28;20484;-79
2022/11/22 09:24:19;;;;;;;51.37;19.93;;;;;;;-1.01;100.00;99518.09;5073637;28;20036;-80
2022/11/22 09:26:47;;;;;;;50.77;20.57;;;;;;;-0.96;100.00;99522.47;5073322;28;20577;-80
2022/11/22 09:29:14;;;;;;;61.83;23.43;;;;;;;-1.03;100.00;99531.06;5067920;28;20047;-80
2022/11/22 09:31:42;;;;;;;54.63;21.23;;;;;;;-1.03;100.00;99527.59;5047089;28;20049;-80
2022/11/22 09:34:08;;;;;;;48.10;19.60;;;;;;;-0.94;100.00;99532.84;5090082;28;20035;-80
2022/11/22 09:36:35;;;;;;;47.87;19.83;;;;;;;-1.02;100.00;99530.19;5075782;28;20100;-80
2022/11/22 09:39:02;;;;;;;54.37;21.47;;;;;;;-0.96;100.00;99535.44;5075798;28;20086;-80
2022/11/22 09:41:44;;;;;;;50.07;21.57;;;;;;;-0.94;100.00;99540.63;5076091;28;20040;-80
2022/11/22 09:44:20;;;;;;;63.47;23.47;;;;;;;-0.91;100.00;99538.06;5093355;28;20046;-80
2022/11/22 09:46:55;;;;;;;52.50;22.17;;;;;;;-0.97;100.00;99536.28;5057278;28;20040;-80
2022/11/22 09:49:37;;;;;;;53.47;22.07;;;;;;;-0.90;100.00;99543.28;5059963;28;20088;-79
2022/11/22 09:52:25;;;;;;;57.27;24.20;;;;;;;-0.84;100.00;99542.47;5093948;28;20090;-79
2022/11/22 09:54:58;;;;;;;52.93;22.00;;;;;;;-0.88;100.00;99554.50;5072101;28;20052;-81
2022/11/22 09:57:30;;;;;;;51.40;21.07;;;;;;;-0.81;100.00;99551.97;5057411;28;20044;-79
2022/11/22 10:00:14;;;;;;;55.80;21.93;;;;;;;-0.82;100.00;99542.47;5074505;28;20546;-79
2022/11/22 10:02:47;;;;;;;54.72;23.98;;;;;;;-0.86;100.00;99557.97;5083390;28;20044;-80
2022/11/22 10:05:30;;;;;;;64.45;24.52;;;;;;;-0.86;100.00;99557.13;5054886;28;20119;-79
2022/11/22 10:08:22;;;;;;;58.00;22.83;;;;;;;-0.96;100.00;99552.72;5042791;28;20496;-79
2022/11/22 10:10:51;;;;;;;55.33;22.53;;;;;;;-0.95;100.00;99549.25;5067674;28;20065;-80
2022/11/22 10:13:29;;;;;;;53.57;23.17;;;;;;;-1.00;100.00;99550.97;5067803;28;20040;-79
2022/11/22 10:16:02;;;;;;;57.03;22.97;;;;;;;-0.88;100.00;99540.69;5071680;28;20044;-80
2022/11/22 10:18:40;;;;;;;59.13;23.90;;;;;;;-1.23;100.00;99555.94;5056322;28;20045;-79
2022/11/22 10:21:11;;;;;;;62.07;25.20;;;;;;;-1.00;100.00;99545.78;5057374;28;20063;-80
2022/11/22 10:23:40;;;;;;;59.27;25.43;;;;;;;-0.90;100.00;99547.59;5071746;28;20032;-80
2022/11/22 10:26:20;;;;;;;46.83;21.97;;;;;;;-0.75;100.00;99539.94;5054304;28;20062;-79
2022/11/22 10:29:12;;;;;;;60.60;23.57;;;;;;;-0.70;100.00;99545.13;5073627;28;20032;-81
2022/11/22 10:31:57;;;;;;;56.37;24.87;;;;;;;-0.63;100.00;99542.59;5070501;28;20086;-80
2022/11/22 10:34:28;;;;;;;57.73;24.60;;;;;;;-0.79;100.00;99548.53;5071959;28;20037;-80
2022/11/22 10:37:06;;;;;;;58.20;22.70;;;;;;;-0.75;100.00;99550.31;5075632;28;20040;-77
2022/11/22 10:39:54;;;;;;;61.57;23.57;;;;;;;-0.71;100.00;99546.00;5075036;28;20039;-78
2022/11/22 10:42:27;;;;;;;61.17;25.13;;;;;;;-0.63;100.00;99545.19;5074266;28;20048;-78
2022/11/22 10:45:14;;;;;;;60.30;26.97;;;;;;;-0.53;100.00;99551.28;5072766;28;20463;-78
2022/11/22 10:47:55;;;;;;;65.00;24.90;;;;;;;-0.46;100.00;99552.22;5060487;28;20044;-78
2022/11/22 10:50:28;;;;;;;65.50;25.30;;;;;;;-0.45;100.00;99556.53;5068136;28;20056;-79
2022/11/22 10:53:00;;;;;;;55.70;26.00;;;;;;;-0.51;100.00;99552.16;5082845;28;20410;-78
2022/11/22 10:55:49;;;;;;;56.50;22.03;;;;;;;-0.59;100.00;99557.34;5074403;28;20036;-79
2022/11/22 10:58:18;;;;;;;60.00;25.77;;;;;;;-0.51;100.00;99559.06;5072280;28;20508;-78
2022/11/22 11:00:49;;;;;;;68.43;26.27;;;;;;;-0.52;100.00;99572.91;5080294;28;20518;-78
2022/11/22 11:03:34;;;;;;;64.73;33.43;;;;;;;-0.43;100.00;99571.25;5072350;28;20674;-78
2022/11/22 11:06:08;;;;;;;66.93;26.17;;;;;;;-0.71;100.00;99572.78;5052203;28;20497;-78
2022/11/22 11:09:02;;;;;;;61.90;28.30;;;;;;;-0.57;100.00;99567.72;5089095;28;20123;-79
2022/11/22 11:11:50;;;;;;;114.30;49.33;;;;;;;-0.53;100.00;99581.56;5077734;28;20028;-79
2022/11/22 11:14:23;;;;;;;70.30;30.03;;;;;;;-0.49;100.00;99580.75;5081480;28;20036;-78
2022/11/22 11:16:50;;;;;;;68.72;27.65;;;;;;;-0.61;100.00;99584.09;5079748;28;20043;-79
2022/11/22 11:19:19;;;;;;;81.37;33.83;;;;;;;-0.46;100.00;99580.75;5076892;28;20516;-78
2022/11/22 11:21:54;;;;;;;67.57;29.83;;;;;;;-0.59;100.00;99590.16;5085575;28;20089;-77
2022/11/22 11:24:21;;;;;;;60.13;25.53;;;;;;;-0.48;100.00;99585.06;5066136;28;20037;-79
2022/11/22 11:26:53;;;;;;;63.27;25.93;;;;;;;-0.39;100.00;99575.59;5070760;28;20032;-79
2022/11/22 11:29:23;;;;;;;66.07;27.97;;;;;;;-0.53;100.00;99582.44;5051860;28;20044;-79
2022/11/22 11:32:03;;;;;;;62.73;24.33;;;;;;;-0.50;100.00;99573.81;5070999;28;20049;-80
2022/11/22 11:34:29;;;;;;;60.10;22.77;;;;;;;-0.47;100.00;99568.63;5069527;28;20039;-81
2022/11/22 11:36:57;;;;;;;59.73;25.00;;;;;;;-0.46;100.00;99560.00;5071896;28;20036;-81